createdAt,value
2022-10-18T00:00:07.546Z,21.27
2022-10-18T00:02:34.491Z,23.05
2022-10-18T00:05:01.396Z,24.10
2022-10-18T00:07:28.405Z,20.73
2022-10-18T00:09:55.336Z,24.52
2022-10-18T00:12:22.089Z,24.20
2022-10-18T00:14:50.946Z,27.50
2022-10-18T00:17:17.899Z,23.77
2022-10-18T00:19:44.822Z,26.23
2022-10-18T00:22:11.619Z,24.05
2022-10-18T00:24:38.380Z,19.95
2022-10-18T00:27:05.095Z,23.80
2022-10-18T00:29:31.859Z,23.30
2022-10-18T00:31:58.624Z,22.60
2022-10-18T00:34:25.554Z,24.90
2022-10-18T00:36:52.324Z,24.27
2022-10-18T00:39:21.499Z,21.70
2022-10-18T00:41:49.235Z,24.13
2022-10-18T00:44:15.938Z,23.55
2022-10-18T00:46:45.702Z,22.58
2022-10-18T00:49:35.772Z,26.65
2022-10-18T00:52:17.892Z,25.42
2022-10-18T00:57:13.511Z,22.65
2022-10-18T00:59:41.667Z,24.10
2022-10-18T01:02:09.143Z,26.55
2022-10-18T01:04:36.268Z,26.27
2022-10-18T01:07:25.736Z,29.23
2022-10-18T01:09:52.457Z,29.65
2022-10-18T01:13:05.075Z,27.23
2022-10-18T01:18:10.609Z,27.67
2022-10-18T01:21:25.079Z,28.60
2022-10-18T01:24:25.428Z,27.02
2022-10-18T01:27:18.235Z,27.70
2022-10-18T01:30:23.434Z,26.00
2022-10-18T01:32:56.221Z,28.15
2022-10-18T01:35:33.946Z,28.73
2022-10-18T01:38:05.332Z,28.45
2022-10-18T01:40:33.385Z,26.70
2022-10-18T01:43:01.738Z,31.10
2022-10-18T01:45:29.138Z,26.88
2022-10-18T01:47:56.788Z,28.13
2022-10-18T01:50:32.582Z,28.35
2022-10-18T01:52:59.972Z,29.48
2022-10-18T01:55:43.181Z,30.92
2022-10-18T01:58:28.717Z,27.95
2022-10-18T02:01:05.446Z,28.83
2022-10-18T02:03:34.923Z,26.38
2022-10-18T02:06:21.745Z,27.52
2022-10-18T02:09:02.530Z,27.80
2022-10-18T02:11:31.341Z,30.65
2022-10-18T02:14:07.564Z,24.55
2022-10-18T02:16:50.419Z,27.80
2022-10-18T02:19:31.563Z,29.15
2022-10-18T02:22:00.066Z,29.93
2022-10-18T02:24:35.941Z,25.65
2022-10-18T02:27:03.559Z,25.58
2022-10-18T02:29:32.001Z,24.02
2022-10-18T02:32:11.636Z,27.75
2022-10-18T02:34:43.206Z,25.00
2022-10-18T02:37:11.451Z,26.98
2022-10-18T02:39:48.685Z,26.25
2022-10-18T02:42:16.195Z,27.20
2022-10-18T02:44:42.973Z,24.88
2022-10-18T02:47:10.883Z,26.60
2022-10-18T02:49:37.665Z,30.92
2022-10-18T02:52:04.614Z,27.58
2022-10-18T02:54:31.480Z,28.45
2022-10-18T02:56:58.249Z,25.73
2022-10-18T02:59:25.014Z,24.90
2022-10-18T03:01:51.849Z,27.60
2022-10-18T03:04:18.770Z,25.08
2022-10-18T03:06:45.693Z,27.65
2022-10-18T03:09:12.470Z,25.65
2022-10-18T03:11:39.251Z,27.45
2022-10-18T03:14:05.934Z,24.52
2022-10-18T03:16:33.934Z,27.45
2022-10-18T03:19:00.774Z,25.00
2022-10-18T03:21:27.519Z,24.77
2022-10-18T03:23:54.266Z,27.75
2022-10-18T03:26:21.693Z,22.98
2022-10-18T03:28:49.154Z,22.98
2022-10-18T03:31:16.006Z,23.48
2022-10-18T03:33:42.747Z,24.35
2022-10-18T03:36:09.679Z,23.20
2022-10-18T03:38:36.387Z,27.05
2022-10-18T03:41:03.114Z,21.85
2022-10-18T03:43:30.049Z,24.20
2022-10-18T03:45:56.860Z,23.15
2022-10-18T03:48:24.163Z,24.30
2022-10-18T03:50:50.934Z,23.10
2022-10-18T03:53:17.689Z,25.35
2022-10-18T03:55:44.495Z,24.23
2022-10-18T03:58:11.582Z,24.70
2022-10-18T04:00:38.405Z,31.95
2022-10-18T04:03:05.348Z,25.05
2022-10-18T04:05:32.272Z,24.85
2022-10-18T04:07:58.991Z,25.35
2022-10-18T04:10:26.306Z,25.38
2022-10-18T04:12:53.011Z,26.35
2022-10-18T04:15:20.541Z,25.52
2022-10-18T04:17:47.403Z,23.90
2022-10-18T04:20:14.359Z,22.50
2022-10-18T04:22:41.142Z,23.23
2022-10-18T04:25:08.148Z,25.80
2022-10-18T04:27:35.757Z,26.13
2022-10-18T04:30:02.655Z,25.10
2022-10-18T04:32:29.459Z,24.05
2022-10-18T04:34:56.445Z,25.40
2022-10-18T04:37:23.257Z,23.10
2022-10-18T04:39:53.430Z,26.80
2022-10-18T04:42:21.719Z,27.50
2022-10-18T04:44:48.529Z,26.88
2022-10-18T04:47:15.949Z,35.10
2022-10-18T04:49:42.774Z,34.08
2022-10-18T04:52:09.945Z,30.63
2022-10-18T04:54:37.017Z,29.48
2022-10-18T04:57:04.261Z,27.58
2022-10-18T04:59:31.062Z,29.42
2022-10-18T05:01:57.999Z,26.35
2022-10-18T05:04:24.845Z,25.45
2022-10-18T05:06:51.674Z,24.20
2022-10-18T05:09:18.529Z,24.40
2022-10-18T05:11:45.274Z,24.77
2022-10-18T05:14:12.020Z,25.17
2022-10-18T05:16:38.749Z,26.83
2022-10-18T05:19:05.968Z,30.25
2022-10-18T05:21:33.207Z,27.60
2022-10-18T05:23:59.918Z,27.48
2022-10-18T05:26:27.338Z,26.73
2022-10-18T05:28:54.303Z,28.30
2022-10-18T05:31:21.537Z,27.30
2022-10-18T05:33:48.293Z,28.63
2022-10-18T05:36:15.329Z,26.65
2022-10-18T05:38:43.971Z,25.58
2022-10-18T05:41:11.610Z,27.55
2022-10-18T05:43:39.569Z,25.48
2022-10-18T05:46:13.544Z,29.67
2022-10-18T05:48:43.468Z,28.80
2022-10-18T05:51:10.228Z,29.77
2022-10-18T05:53:37.977Z,27.50
2022-10-18T05:56:06.104Z,28.02
2022-10-18T05:58:33.612Z,27.35
2022-10-18T06:01:01.872Z,28.60
2022-10-18T06:03:30.643Z,25.20
2022-10-18T06:06:10.908Z,26.33
2022-10-18T06:08:39.009Z,25.30
2022-10-18T06:11:13.990Z,25.88
2022-10-18T06:13:46.788Z,25.15
2022-10-18T06:16:15.831Z,25.20
2022-10-18T06:18:43.113Z,26.50
2022-10-18T06:21:10.034Z,26.65
2022-10-18T06:23:36.883Z,27.15
2022-10-18T06:26:06.383Z,30.42
2022-10-18T06:28:35.879Z,27.52
2022-10-18T06:31:03.676Z,25.67
2022-10-18T06:33:35.734Z,29.05
2022-10-18T06:36:05.476Z,26.55
2022-10-18T06:38:32.843Z,32.30
2022-10-18T06:41:00.113Z,30.38
2022-10-18T06:43:27.098Z,24.20
2022-10-18T06:45:54.465Z,27.67
2022-10-18T06:48:22.169Z,30.35
2022-10-18T06:51:08.406Z,25.95
2022-10-18T06:53:44.073Z,27.48
2022-10-18T06:56:15.824Z,33.08
2022-10-18T06:58:42.618Z,27.85
2022-10-18T07:01:15.977Z,27.77
2022-10-18T07:03:43.787Z,32.80
2022-10-18T07:06:12.745Z,30.08
2022-10-18T07:08:40.308Z,30.65
2022-10-18T07:11:08.685Z,30.23
2022-10-18T07:13:35.654Z,25.92
2022-10-18T07:16:06.210Z,30.65
2022-10-18T07:18:34.742Z,29.25
2022-10-18T07:21:03.476Z,35.55
2022-10-18T07:23:32.128Z,30.10
2022-10-18T07:25:59.080Z,35.72
2022-10-18T07:28:26.139Z,33.13
2022-10-18T07:30:52.935Z,34.50
2022-10-18T07:33:20.775Z,33.40
2022-10-18T07:35:48.228Z,39.78
2022-10-18T07:38:14.955Z,38.95
2022-10-18T07:40:41.726Z,42.00
2022-10-18T07:43:11.997Z,42.53
2022-10-18T07:45:38.965Z,36.33
2022-10-18T07:48:05.890Z,50.63
2022-10-18T07:50:32.794Z,44.65
2022-10-18T07:52:59.556Z,47.47
2022-10-18T07:55:26.272Z,48.35
2022-10-18T07:57:53.559Z,43.15
2022-10-18T08:00:20.491Z,44.45
2022-10-18T08:02:48.268Z,45.30
2022-10-18T08:05:15.088Z,42.92
2022-10-18T08:07:41.777Z,40.58
2022-10-18T08:10:08.930Z,41.55
2022-10-18T08:12:35.801Z,43.33
2022-10-18T08:15:02.594Z,43.53
2022-10-18T08:17:31.219Z,41.50
2022-10-18T08:20:11.437Z,38.20
2022-10-18T08:22:39.304Z,42.03
2022-10-18T08:25:06.594Z,37.03
2022-10-18T08:27:33.755Z,44.35
2022-10-18T08:30:02.136Z,43.92
2022-10-18T08:32:29.814Z,41.22
2022-10-18T08:34:56.784Z,36.75
2022-10-18T08:37:23.562Z,41.30
2022-10-18T08:39:50.317Z,37.10
2022-10-18T08:42:19.851Z,38.30
2022-10-18T08:44:49.462Z,39.92
2022-10-18T08:47:19.681Z,38.47
2022-10-18T08:49:58.010Z,35.47
2022-10-18T08:52:46.221Z,38.85
2022-10-18T08:55:29.518Z,38.08
2022-10-18T08:57:59.481Z,40.88
2022-10-18T09:00:31.009Z,39.72
2022-10-18T09:02:57.758Z,37.75
2022-10-18T09:05:59.954Z,39.63
2022-10-18T09:11:26.966Z,35.22
2022-10-18T09:14:33.726Z,40.13
2022-10-18T09:17:15.940Z,41.38
2022-10-18T09:20:05.053Z,37.05
2022-10-18T09:22:46.936Z,37.30
2022-10-18T09:27:53.916Z,40.05
2022-10-18T09:30:42.630Z,41.03
2022-10-18T09:33:24.448Z,75.88
2022-10-18T09:35:57.140Z,36.50
2022-10-18T09:38:30.895Z,36.53
2022-10-18T09:41:02.371Z,40.55
2022-10-18T09:44:00.757Z,42.75
2022-10-18T09:46:32.404Z,40.95
2022-10-18T09:49:04.970Z,46.40
2022-10-18T09:51:37.782Z,44.17
2022-10-18T09:54:24.122Z,38.70
2022-10-18T09:57:01.252Z,40.88
2022-10-18T09:59:40.541Z,42.67
2022-10-18T10:02:12.970Z,37.97
2022-10-18T10:04:39.768Z,46.35
2022-10-18T10:07:09.448Z,55.13
2022-10-18T10:09:49.580Z,53.38
2022-10-18T10:12:37.587Z,53.85
2022-10-18T10:15:28.253Z,42.55
2022-10-18T10:18:07.032Z,40.78
2022-10-18T10:20:44.383Z,40.40
2022-10-18T10:23:21.223Z,40.67
2022-10-18T10:25:53.515Z,43.95
2022-10-18T10:28:24.331Z,40.72
2022-10-18T10:30:51.211Z,40.50
2022-10-18T10:33:36.595Z,37.78
2022-10-18T10:36:15.556Z,37.85
2022-10-18T10:38:42.385Z,40.15
2022-10-18T10:41:23.557Z,37.03
2022-10-18T10:43:51.297Z,39.15
2022-10-18T10:46:20.008Z,33.28
2022-10-18T10:48:50.846Z,32.47
2022-10-18T10:51:39.000Z,33.30
2022-10-18T10:54:14.021Z,30.63
2022-10-18T10:57:05.550Z,32.25
2022-10-18T10:59:43.714Z,32.80
2022-10-18T11:02:20.696Z,33.85
2022-10-18T11:04:57.771Z,35.00
2022-10-18T11:07:30.681Z,31.88
2022-10-18T11:10:00.535Z,31.05
2022-10-18T11:12:35.700Z,30.05
2022-10-18T11:15:10.958Z,27.67
2022-10-18T11:17:51.455Z,26.92
2022-10-18T11:20:38.520Z,29.50
2022-10-18T11:23:12.485Z,24.77
2022-10-18T11:25:57.415Z,22.15
2022-10-18T11:28:39.124Z,21.13
2022-10-18T11:31:15.130Z,27.23
2022-10-18T11:34:08.179Z,25.60
2022-10-18T11:36:57.836Z,24.70
2022-10-18T11:39:55.581Z,19.75
2022-10-18T11:42:42.120Z,23.05
2022-10-18T11:45:27.632Z,21.30
2022-10-18T11:48:15.316Z,18.27
2022-10-18T11:51:02.289Z,24.10
2022-10-18T11:53:40.857Z,18.67
2022-10-18T11:56:38.059Z,14.50
2022-10-18T11:59:37.742Z,23.23
2022-10-18T12:02:39.458Z,18.17
2022-10-18T12:05:24.585Z,20.42
2022-10-18T12:07:59.276Z,25.75
2022-10-18T12:10:44.372Z,22.90
2022-10-18T12:13:35.265Z,31.00
2022-10-18T12:16:05.371Z,32.67
2022-10-18T12:18:32.972Z,39.75
2022-10-18T12:21:01.017Z,42.53
2022-10-18T12:23:44.356Z,44.80
2022-10-18T12:26:11.508Z,51.80
2022-10-18T12:29:05.503Z,51.28
2022-10-18T12:32:12.769Z,53.50
2022-10-18T12:35:08.921Z,56.25
2022-10-18T12:38:00.485Z,59.45
2022-10-18T12:40:35.634Z,55.00
2022-10-18T12:43:09.642Z,50.58
2022-10-18T12:45:53.042Z,53.47
2022-10-18T12:48:38.692Z,52.58
2022-10-18T12:51:06.911Z,58.80
2022-10-18T12:53:34.615Z,62.33
2022-10-18T12:56:29.327Z,58.08
2022-10-18T12:59:14.528Z,72.13
2022-10-18T13:02:07.675Z,68.15
2022-10-18T13:04:35.443Z,69.70
2022-10-18T13:07:05.325Z,62.97
2022-10-18T13:09:37.058Z,64.97
2022-10-18T13:12:09.757Z,61.40
2022-10-18T13:14:59.316Z,242.45
2022-10-18T13:18:01.222Z,58.70
2022-10-18T13:20:42.635Z,64.93
2022-10-18T13:23:27.769Z,61.45
2022-10-18T13:26:13.916Z,59.88
2022-10-18T13:28:46.244Z,64.05
2022-10-18T13:31:34.635Z,57.78
2022-10-18T13:34:30.337Z,60.20
2022-10-18T13:37:21.550Z,61.92
2022-10-18T13:39:48.578Z,57.58
2022-10-18T13:42:15.260Z,66.40
2022-10-18T13:44:44.726Z,64.03
2022-10-18T13:47:31.908Z,62.00
2022-10-18T13:50:17.883Z,62.47
2022-10-18T13:52:53.489Z,67.13
2022-10-18T13:55:44.207Z,64.97
2022-10-18T13:58:21.226Z,59.42
2022-10-18T14:01:38.922Z,78.07
2022-10-18T14:04:27.905Z,65.13
2022-10-18T14:07:02.189Z,61.20
2022-10-18T14:09:44.423Z,63.70
2022-10-18T14:12:41.152Z,66.55
2022-10-18T14:15:16.164Z,61.60
2022-10-18T14:17:52.614Z,68.15
2022-10-18T14:20:48.944Z,69.68
2022-10-18T14:23:21.439Z,70.45
2022-10-18T14:28:31.575Z,78.45
2022-10-18T14:31:15.257Z,67.85
2022-10-18T14:33:58.402Z,71.90
2022-10-18T14:36:36.153Z,79.70
2022-10-18T14:39:05.826Z,73.57
2022-10-18T14:41:40.960Z,69.40
2022-10-18T14:44:17.624Z,68.38
2022-10-18T14:46:51.381Z,70.90
2022-10-18T14:49:20.379Z,74.80
2022-10-18T14:51:50.789Z,66.28
2022-10-18T14:54:29.140Z,70.32
2022-10-18T14:57:03.283Z,62.03
2022-10-18T14:59:33.468Z,67.15
2022-10-18T15:02:19.280Z,66.40
2022-10-18T15:04:47.404Z,66.80
2022-10-18T15:07:18.033Z,66.72
2022-10-18T15:09:45.631Z,66.40
2022-10-18T15:12:15.481Z,84.43
2022-10-18T15:14:43.593Z,73.55
2022-10-18T15:17:20.581Z,71.50
2022-10-18T15:19:55.018Z,70.93
2022-10-18T15:22:32.686Z,69.60
2022-10-18T15:25:05.926Z,70.15
2022-10-18T15:27:36.797Z,68.05
2022-10-18T15:30:18.757Z,73.53
2022-10-18T15:35:27.010Z,75.63
2022-10-18T15:37:55.941Z,67.65
2022-10-18T15:40:22.728Z,65.18
2022-10-18T15:42:55.059Z,66.03
2022-10-18T15:45:24.576Z,74.00
2022-10-18T15:48:23.870Z,70.15
2022-10-18T15:51:04.949Z,71.78
2022-10-18T15:53:55.022Z,70.38
2022-10-18T15:56:35.891Z,69.00
2022-10-18T15:59:06.402Z,63.57
2022-10-18T16:01:42.671Z,66.20
2022-10-18T16:04:18.542Z,67.25
2022-10-18T16:06:45.377Z,69.25
2022-10-18T16:09:17.194Z,70.75
2022-10-18T16:11:44.049Z,73.65
2022-10-18T16:14:10.974Z,71.95
2022-10-18T16:16:39.222Z,67.63
2022-10-18T16:19:06.439Z,72.78
2022-10-18T16:21:39.022Z,66.90
2022-10-18T16:24:06.475Z,74.80
2022-10-18T16:26:33.956Z,76.25
2022-10-18T16:29:01.673Z,77.65
2022-10-18T16:31:31.779Z,79.68
2022-10-18T16:33:59.275Z,78.95
2022-10-18T16:36:33.617Z,78.18
2022-10-18T16:39:03.882Z,79.85
2022-10-18T16:41:30.693Z,77.43
2022-10-18T16:43:57.387Z,72.55
2022-10-18T16:46:34.900Z,80.90
2022-10-18T16:49:02.146Z,71.50
2022-10-18T16:51:29.179Z,72.80
2022-10-18T16:53:55.924Z,74.65
2022-10-18T16:56:28.504Z,73.05
2022-10-18T16:58:55.405Z,79.75
2022-10-18T17:01:23.787Z,87.45
2022-10-18T17:03:52.189Z,78.00
2022-10-18T17:06:26.174Z,85.97
2022-10-18T17:08:53.726Z,79.90
2022-10-18T17:11:21.984Z,78.30
2022-10-18T17:13:48.742Z,80.65
2022-10-18T17:16:30.096Z,76.80
2022-10-18T17:18:58.764Z,80.20
2022-10-18T17:21:26.582Z,76.78
2022-10-18T17:23:53.711Z,77.20
2022-10-18T17:26:30.310Z,79.57
2022-10-18T17:29:03.792Z,81.28
2022-10-18T17:31:31.978Z,78.20
2022-10-18T17:34:01.477Z,83.40
2022-10-18T17:36:28.962Z,78.05
2022-10-18T17:38:56.210Z,85.32
2022-10-18T17:41:23.032Z,80.60
2022-10-18T17:43:49.844Z,93.28
2022-10-18T17:46:18.096Z,86.53
2022-10-18T17:48:45.533Z,82.78
2022-10-18T17:51:15.290Z,74.45
2022-10-18T17:53:42.393Z,80.63
2022-10-18T17:56:11.335Z,71.60
2022-10-18T17:58:38.326Z,76.63
2022-10-18T18:01:16.802Z,80.60
2022-10-18T18:03:44.008Z,84.50
2022-10-18T18:06:23.139Z,83.05
2022-10-18T18:08:50.693Z,81.38
2022-10-18T18:11:18.357Z,81.57
2022-10-18T18:13:45.699Z,80.20
2022-10-18T18:16:21.726Z,84.18
2022-10-18T18:18:53.805Z,76.53
2022-10-18T18:21:21.738Z,74.20
2022-10-18T18:23:51.889Z,75.90
2022-10-18T18:26:22.212Z,83.75
2022-10-18T18:28:49.762Z,78.63
2022-10-18T18:31:24.917Z,74.40
2022-10-18T18:33:53.151Z,71.55
2022-10-18T18:36:25.215Z,68.38
2022-10-18T18:38:57.005Z,80.47
2022-10-18T18:41:26.452Z,75.47
2022-10-18T18:44:00.810Z,70.47
2022-10-18T18:46:37.160Z,74.60
2022-10-18T18:49:05.326Z,71.85
2022-10-18T18:51:33.284Z,71.03
2022-10-18T18:54:02.531Z,76.93
2022-10-18T18:56:29.358Z,71.25
2022-10-18T18:59:01.507Z,65.43
2022-10-18T19:01:40.472Z,63.80
2022-10-18T19:04:09.065Z,75.68
2022-10-18T19:06:38.696Z,74.32
2022-10-18T19:09:19.232Z,73.32
2022-10-18T19:11:47.631Z,71.75
2022-10-18T19:14:17.659Z,76.43
2022-10-18T19:16:48.511Z,73.43
2022-10-18T19:19:18.041Z,71.38
2022-10-18T19:21:56.002Z,75.20
2022-10-18T19:24:27.061Z,70.18
2022-10-18T19:26:56.762Z,69.15
2022-10-18T19:29:26.462Z,73.85
2022-10-18T19:31:55.960Z,79.13
2022-10-18T19:34:24.132Z,67.05
2022-10-18T19:36:51.876Z,74.15
2022-10-18T19:39:27.659Z,74.28
2022-10-18T19:41:56.356Z,73.18
2022-10-18T19:44:24.684Z,73.22
2022-10-18T19:46:52.032Z,74.97
2022-10-18T19:49:19.229Z,75.65
2022-10-18T19:51:46.865Z,79.68
2022-10-18T19:54:17.753Z,74.88
2022-10-18T19:56:44.645Z,70.17
2022-10-18T19:59:16.390Z,68.10
2022-10-18T20:01:43.717Z,66.60
2022-10-18T20:04:12.138Z,69.28
2022-10-18T20:06:39.721Z,70.82
2022-10-18T20:09:08.586Z,67.63
2022-10-18T20:11:36.021Z,69.97
2022-10-18T20:14:03.402Z,67.93
2022-10-18T20:16:32.968Z,66.70
2022-10-18T20:19:05.035Z,69.05
2022-10-18T20:21:35.716Z,73.15
2022-10-18T20:24:04.634Z,69.65
2022-10-18T20:26:32.087Z,73.00
2022-10-18T20:28:59.877Z,74.13
2022-10-18T20:31:32.172Z,74.90
2022-10-18T20:34:02.188Z,71.90
2022-10-18T20:36:30.981Z,75.25
2022-10-18T20:38:58.197Z,69.47
2022-10-18T20:41:34.193Z,71.80
2022-10-18T20:44:11.371Z,76.60
2022-10-18T20:46:42.080Z,74.85
2022-10-18T20:49:11.007Z,71.72
2022-10-18T20:51:37.708Z,77.35
2022-10-18T20:56:40.697Z,74.30
2022-10-18T20:59:10.520Z,77.22
2022-10-18T21:01:39.032Z,74.20
2022-10-18T21:04:08.231Z,78.50
2022-10-18T21:06:37.916Z,78.47
2022-10-18T21:09:07.255Z,75.53
2022-10-18T21:11:39.667Z,74.07
2022-10-18T21:14:07.886Z,78.30
2022-10-18T21:16:36.182Z,75.03
2022-10-18T21:19:07.719Z,76.35
2022-10-18T21:21:34.827Z,82.10
2022-10-18T21:24:05.337Z,89.78
2022-10-18T21:26:34.648Z,72.90
2022-10-18T21:29:01.466Z,86.55
2022-10-18T21:31:34.719Z,80.93
2022-10-18T21:34:04.402Z,81.82
2022-10-18T21:36:33.278Z,78.13
2022-10-18T21:39:00.095Z,76.82
2022-10-18T21:41:27.034Z,82.40
2022-10-18T21:43:55.125Z,74.93
2022-10-18T21:46:24.005Z,81.20
2022-10-18T21:48:52.769Z,80.40
2022-10-18T21:51:22.373Z,76.18
2022-10-18T21:53:51.256Z,74.90
2022-10-18T21:56:20.063Z,85.20
2022-10-18T21:58:46.917Z,81.78
2022-10-18T22:01:21.876Z,86.30
2022-10-18T22:03:50.495Z,86.15
2022-10-18T22:06:18.016Z,81.78
2022-10-18T22:08:49.227Z,89.78
2022-10-18T22:11:17.020Z,82.05
2022-10-18T22:13:43.870Z,82.80
2022-10-18T22:16:14.350Z,86.30
2022-10-18T22:18:41.914Z,84.88
2022-10-18T22:21:10.768Z,86.72
2022-10-18T22:23:43.258Z,82.88
2022-10-18T22:26:16.925Z,83.75
2022-10-18T22:28:45.061Z,85.70
2022-10-18T22:31:20.696Z,90.80
2022-10-18T22:33:52.437Z,88.28
2022-10-18T22:36:19.144Z,85.07
2022-10-18T22:38:45.925Z,91.13
2022-10-18T22:41:12.816Z,91.10
2022-10-18T22:43:40.063Z,89.15
2022-10-18T22:46:09.610Z,81.38
2022-10-18T22:48:36.611Z,88.93
2022-10-18T22:51:04.155Z,86.18
2022-10-18T22:53:32.138Z,81.93
2022-10-18T22:55:59.048Z,91.03
2022-10-18T22:58:26.012Z,94.45
2022-10-18T23:01:01.047Z,89.95
2022-10-18T23:03:27.791Z,89.70
2022-10-18T23:05:54.733Z,89.18
2022-10-18T23:08:21.654Z,86.50
2022-10-18T23:10:52.050Z,91.63
2022-10-18T23:13:18.827Z,86.25
2022-10-18T23:15:45.623Z,96.00
2022-10-18T23:18:12.377Z,91.20
2022-10-18T23:20:39.159Z,87.78
2022-10-18T23:23:05.903Z,95.55
2022-10-18T23:25:36.516Z,96.20
2022-10-18T23:28:04.473Z,95.90
2022-10-18T23:30:31.932Z,96.53
2022-10-18T23:32:58.726Z,97.03
2022-10-18T23:35:25.506Z,98.90
2022-10-18T23:37:52.854Z,97.90
2022-10-18T23:40:19.795Z,95.93
2022-10-18T23:42:46.556Z,95.28
2022-10-18T23:45:13.338Z,107.85
2022-10-18T23:47:40.064Z,99.60
2022-10-18T23:50:07.200Z,97.18
2022-10-18T23:52:33.937Z,105.38
2022-10-18T23:55:00.678Z,105.03
2022-10-18T23:57:27.666Z,103.05
2022-10-18T23:59:54.439Z,96.13
